sensor_id;sensor_type;location;lat;lon;timestamp;P1;durP1;ratioP1;P2;durP2;ratioP2
18399;SDS011;9326;49.468;11.008;2023-07-30T05:02:10;5.50;;;5.00;;
18399;SDS011;9326;49.468;11.008;2023-07-30T05:04:37;5.50;;;4.97;;
18399;SDS011;9326;49.468;11.008;2023-07-30T05:07:05;5.23;;;4.73;;
18399;SDS011;9326;49.468;11.008;2023-07-30T05:09:32;5.00;;;4.40;;
18399;SDS011;9326;49.468;11.008;2023-07-30T05:11:59;5.37;;;4.87;;
18399;SDS011;9326;49.468;11.008;2023-07-30T05:14:26;4.80;;;4.40;;
18399;SDS011;9326;49.468;11.008;2023-07-30T05:16:53;5.23;;;4.73;;
18399;SDS011;9326;49.468;11.008;2023-07-30T05:19:22;5.10;;;4.60;;
18399;SDS011;9326;49.468;11.008;2023-07-30T05:21:49;4.83;;;4.27;;
18399;SDS011;9326;49.468;11.008;2023-07-30T05:24:16;5.07;;;4.40;;
18399;SDS011;9326;49.468;11.008;2023-07-30T05:26:43;4.77;;;4.37;;
18399;SDS011;9326;49.468;11.008;2023-07-30T05:29:10;5.00;;;4.50;;
18399;SDS011;9326;49.468;11.008;2023-07-30T05:31:37;5.90;;;5.43;;
18399;SDS011;9326;49.468;11.008;2023-07-30T05:34:04;5.50;;;5.10;;
18399;SDS011;9326;49.468;11.008;2023-07-30T05:36:33;4.90;;;4.50;;
18399;SDS011;9326;49.468;11.008;2023-07-30T05:39:00;4.20;;;3.80;;
18399;SDS011;9326;49.468;11.008;2023-07-30T05:41:28;4.07;;;3.70;;
18399;SDS011;9326;49.468;11.008;2023-07-30T05:43:55;3.50;;;3.20;;
18399;SDS011;9326;49.468;11.008;2023-07-30T05:46:22;3.53;;;3.33;;
18399;SDS011;9326;49.468;11.008;2023-07-30T05:48:49;5.67;;;4.13;;
18399;SDS011;9326;49.468;11.008;2023-07-30T05:51:16;4.03;;;3.60;;
18399;SDS011;9326;49.468;11.008;2023-07-30T05:53:47;3.50;;;3.20;;
18399;SDS011;9326;49.468;11.008;2023-07-30T05:56:14;3.50;;;3.20;;
18399;SDS011;9326;49.468;11.008;2023-07-30T05:58:43;3.33;;;3.00;;
18399;SDS011;9326;49.468;11.008;2023-07-30T06:01:10;3.00;;;2.70;;
18399;SDS011;9326;49.468;11.008;2023-07-30T06:03:38;3.40;;;3.00;;
18399;SDS011;9326;49.468;11.008;2023-07-30T06:06:06;3.70;;;2.73;;
18399;SDS011;9326;49.468;11.008;2023-07-30T06:08:33;3.53;;;3.10;;
18399;SDS011;9326;49.468;11.008;2023-07-30T06:11:02;2.97;;;2.47;;
18399;SDS011;9326;49.468;11.008;2023-07-30T06:13:29;3.07;;;2.53;;
18399;SDS011;9326;49.468;11.008;2023-07-30T06:15:56;2.70;;;2.50;;
18399;SDS011;9326;49.468;11.008;2023-07-30T06:18:23;3.20;;;2.97;;
18399;SDS011;9326;49.468;11.008;2023-07-30T06:20:50;3.27;;;2.57;;
18399;SDS011;9326;49.468;11.008;2023-07-30T06:23:18;2.90;;;2.20;;
18399;SDS011;9326;49.468;11.008;2023-07-30T06:25:45;2.53;;;2.33;;
18399;SDS011;9326;49.468;11.008;2023-07-30T06:28:16;2.33;;;2.10;;
18399;SDS011;9326;49.468;11.008;2023-07-30T06:30:45;2.50;;;2.30;;
18399;SDS011;9326;49.468;11.008;2023-07-30T06:33:15;2.37;;;2.17;;
18399;SDS011;9326;49.468;11.008;2023-07-30T06:35:42;2.80;;;2.20;;
18399;SDS011;9326;49.468;11.008;2023-07-30T06:38:10;2.20;;;2.00;;
18399;SDS011;9326;49.468;11.008;2023-07-30T06:40:37;2.40;;;2.20;;
18399;SDS011;9326;49.468;11.008;2023-07-30T06:43:04;3.70;;;2.10;;
18399;SDS011;9326;49.468;11.008;2023-07-30T06:45:32;2.20;;;2.00;;
18399;SDS011;9326;49.468;11.008;2023-07-30T06:47:59;3.13;;;2.10;;
18399;SDS011;9326;49.468;11.008;2023-07-30T06:50:26;2.23;;;2.07;;
18399;SDS011;9326;49.468;11.008;2023-07-30T06:52:54;2.03;;;1.90;;
18399;SDS011;9326;49.468;11.008;2023-07-30T06:55:21;2.20;;;2.00;;
18399;SDS011;9326;49.468;11.008;2023-07-30T06:57:48;2.10;;;2.00;;
18399;SDS011;9326;49.468;11.008;2023-07-30T07:00:15;2.23;;;1.80;;
18399;SDS011;9326;49.468;11.008;2023-07-30T07:02:47;2.50;;;2.00;;
18399;SDS011;9326;49.468;11.008;2023-07-30T07:05:15;2.10;;;2.00;;
18399;SDS011;9326;49.468;11.008;2023-07-30T07:07:44;2.10;;;2.00;;
18399;SDS011;9326;49.468;11.008;2023-07-30T07:10:12;3.00;;;1.90;;
18399;SDS011;9326;49.468;11.008;2023-07-30T07:12:40;1.87;;;1.70;;
18399;SDS011;9326;49.468;11.008;2023-07-30T07:15:07;1.83;;;1.73;;
18399;SDS011;9326;49.468;11.008;2023-07-30T07:17:34;2.20;;;2.10;;
18399;SDS011;9326;49.468;11.008;2023-07-30T07:20:03;1.80;;;1.70;;
18399;SDS011;9326;49.468;11.008;2023-07-30T07:22:31;2.03;;;1.80;;
18399;SDS011;9326;49.468;11.008;2023-07-30T07:24:58;2.40;;;2.20;;
18399;SDS011;9326;49.468;11.008;2023-07-30T07:27:25;2.87;;;2.00;;
18399;SDS011;9326;49.468;11.008;2023-07-30T07:29:52;3.30;;;2.30;;
18399;SDS011;9326;49.468;11.008;2023-07-30T07:32:19;3.07;;;2.20;;
18399;SDS011;9326;49.468;11.008;2023-07-30T07:34:47;2.90;;;2.07;;
18399;SDS011;9326;49.468;11.008;2023-07-30T07:37:16;2.50;;;2.17;;
18399;SDS011;9326;49.468;11.008;2023-07-30T07:39:43;2.70;;;2.07;;
18399;SDS011;9326;49.468;11.008;2023-07-30T07:42:11;3.87;;;2.63;;
18399;SDS011;9326;49.468;11.008;2023-07-30T07:44:38;2.33;;;2.10;;
18399;SDS011;9326;49.468;11.008;2023-07-30T07:47:05;2.53;;;2.33;;
18399;SDS011;9326;49.468;11.008;2023-07-30T07:49:32;2.20;;;2.00;;
18399;SDS011;9326;49.468;11.008;2023-07-30T07:51:59;3.53;;;1.93;;
18399;SDS011;9326;49.468;11.008;2023-07-30T07:54:28;2.33;;;1.80;;
18399;SDS011;9326;49.468;11.008;2023-07-30T07:56:55;1.90;;;1.80;;
18399;SDS011;9326;49.468;11.008;2023-07-30T07:59:22;2.20;;;1.90;;
18399;SDS011;9326;49.468;11.008;2023-07-30T08:01:49;2.53;;;2.30;;
18399;SDS011;9326;49.468;11.008;2023-07-30T08:04:16;2.03;;;1.93;;
18399;SDS011;9326;49.468;11.008;2023-07-30T08:06:43;1.90;;;1.80;;
18399;SDS011;9326;49.468;11.008;2023-07-30T08:09:10;2.73;;;2.20;;
18399;SDS011;9326;49.468;11.008;2023-07-30T08:11:38;1.90;;;1.80;;
18399;SDS011;9326;49.468;11.008;2023-07-30T08:14:05;2.30;;;1.97;;
18399;SDS011;9326;49.468;11.008;2023-07-30T08:16:32;1.93;;;1.83;;
18399;SDS011;9326;49.468;11.008;2023-07-30T08:18:59;2.00;;;1.90;;
18399;SDS011;9326;49.468;11.008;2023-07-30T08:21:27;2.33;;;1.90;;
18399;SDS011;9326;49.468;11.008;2023-07-30T08:23:54;2.00;;;1.90;;
18399;SDS011;9326;49.468;11.008;2023-07-30T08:26:21;1.80;;;1.70;;
18399;SDS011;9326;49.468;11.008;2023-07-30T08:28:49;2.20;;;1.73;;
18399;SDS011;9326;49.468;11.008;2023-07-30T08:31:16;3.00;;;1.90;;
18399;SDS011;9326;49.468;11.008;2023-07-30T08:33:43;2.60;;;1.93;;
18399;SDS011;9326;49.468;11.008;2023-07-30T08:36:10;1.83;;;1.73;;
18399;SDS011;9326;49.468;11.008;2023-07-30T08:38:38;1.80;;;1.70;;
18399;SDS011;9326;49.468;11.008;2023-07-30T08:41:05;2.27;;;2.07;;
18399;SDS011;9326;49.468;11.008;2023-07-30T08:43:32;2.80;;;2.47;;
18399;SDS011;9326;49.468;11.008;2023-07-30T08:46:00;3.60;;;3.33;;
18399;SDS011;9326;49.468;11.008;2023-07-30T08:48:27;2.40;;;2.20;;
18399;SDS011;9326;49.468;11.008;2023-07-30T08:50:56;1.97;;;1.80;;
18399;SDS011;9326;49.468;11.008;2023-07-30T08:53:23;2.00;;;1.90;;
18399;SDS011;9326;49.468;11.008;2023-07-30T08:55:51;2.10;;;1.90;;
18399;SDS011;9326;49.468;11.008;2023-07-30T08:58:19;2.03;;;1.93;;
18399;SDS011;9326;49.468;11.008;2023-07-30T09:00:46;2.20;;;2.00;;
18399;SDS011;9326;49.468;11.008;2023-07-30T09:03:16;2.13;;;1.77;;
18399;SDS011;9326;49.468;11.008;2023-07-30T09:05:44;2.17;;;1.90;;
18399;SDS011;9326;49.468;11.008;2023-07-30T09:08:11;1.80;;;1.70;;
18399;SDS011;9326;49.468;11.008;2023-07-30T09:10:38;1.70;;;1.60;;
18399;SDS011;9326;49.468;11.008;2023-07-30T09:13:06;2.10;;;1.87;;
18399;SDS011;9326;49.468;11.008;2023-07-30T09:15:33;2.27;;;2.13;;
18399;SDS011;9326;49.468;11.008;2023-07-30T09:18:02;2.37;;;1.97;;
18399;SDS011;9326;49.468;11.008;2023-07-30T09:20:37;1.90;;;1.80;;
18399;SDS011;9326;49.468;11.008;2023-07-30T09:23:04;2.17;;;2.00;;
18399;SDS011;9326;49.468;11.008;2023-07-30T09:25:32;1.70;;;1.60;;
18399;SDS011;9326;49.468;11.008;2023-07-30T09:27:59;1.60;;;1.50;;
18399;SDS011;9326;49.468;11.008;2023-07-30T09:30:26;1.80;;;1.70;;
18399;SDS011;9326;49.468;11.008;2023-07-30T09:32:54;1.67;;;1.57;;
18399;SDS011;9326;49.468;11.008;2023-07-30T09:35:21;2.43;;;1.17;;
18399;SDS011;9326;49.468;11.008;2023-07-30T09:37:52;1.47;;;1.37;;
18399;SDS011;9326;49.468;11.008;2023-07-30T09:40:30;1.37;;;1.27;;
18399;SDS011;9326;49.468;11.008;2023-07-30T09:42:57;1.50;;;1.40;;
18399;SDS011;9326;49.468;11.008;2023-07-30T09:45:25;1.13;;;1.13;;
18399;SDS011;9326;49.468;11.008;2023-07-30T09:47:53;1.50;;;1.40;;
18399;SDS011;9326;49.468;11.008;2023-07-30T09:50:21;1.30;;;1.20;;
18399;SDS011;9326;49.468;11.008;2023-07-30T09:52:48;1.30;;;1.20;;
18399;SDS011;9326;49.468;11.008;2023-07-30T09:55:17;1.17;;;1.17;;
18399;SDS011;9326;49.468;11.008;2023-07-30T09:57:44;1.50;;;1.40;;
18399;SDS011;9326;49.468;11.008;2023-07-30T10:00:11;1.47;;;1.37;;
18399;SDS011;9326;49.468;11.008;2023-07-30T10:02:40;1.50;;;1.40;;
18399;SDS011;9326;49.468;11.008;2023-07-30T10:05:08;1.17;;;1.17;;
18399;SDS011;9326;49.468;11.008;2023-07-30T10:07:35;1.57;;;1.20;;
18399;SDS011;9326;49.468;11.008;2023-07-30T10:10:02;1.30;;;1.20;;
18399;SDS011;9326;49.468;11.008;2023-07-30T10:12:32;1.00;;;1.00;;
18399;SDS011;9326;49.468;11.008;2023-07-30T10:15:00;1.40;;;1.30;;
18399;SDS011;9326;49.468;11.008;2023-07-30T10:17:27;2.83;;;1.30;;
18399;SDS011;9326;49.468;11.008;2023-07-30T10:19:54;2.23;;;1.30;;
18399;SDS011;9326;49.468;11.008;2023-07-30T10:22:22;3.40;;;1.27;;
18399;SDS011;9326;49.468;11.008;2023-07-30T10:24:57;2.77;;;1.60;;
18399;SDS011;9326;49.468;11.008;2023-07-30T10:27:24;3.83;;;1.80;;
18399;SDS011;9326;49.468;11.008;2023-07-30T10:32:38;2.00;;;1.70;;
18399;SDS011;9326;49.468;11.008;2023-07-30T10:35:06;1.83;;;1.73;;
18399;SDS011;9326;49.468;11.008;2023-07-30T10:37:33;1.93;;;1.83;;
18399;SDS011;9326;49.468;11.008;2023-07-30T10:40:00;2.07;;;1.87;;
18399;SDS011;9326;49.468;11.008;2023-07-30T10:42:32;6.03;;;2.00;;
18399;SDS011;9326;49.468;11.008;2023-07-30T10:45:00;6.87;;;2.00;;
18399;SDS011;9326;49.468;11.008;2023-07-30T10:47:27;2.83;;;2.13;;
18399;SDS011;9326;49.468;11.008;2023-07-30T10:49:59;2.43;;;2.23;;
18399;SDS011;9326;49.468;11.008;2023-07-30T10:52:27;2.30;;;2.10;;
18399;SDS011;9326;49.468;11.008;2023-07-30T10:54:59;2.80;;;2.40;;
18399;SDS011;9326;49.468;11.008;2023-07-30T10:57:29;3.30;;;2.10;;
18399;SDS011;9326;49.468;11.008;2023-07-30T10:59:56;2.13;;;1.90;;
18399;SDS011;9326;49.468;11.008;2023-07-30T11:02:24;3.53;;;2.20;;
18399;SDS011;9326;49.468;11.008;2023-07-30T11:04:51;2.20;;;2.03;;
18399;SDS011;9326;49.468;11.008;2023-07-30T11:07:19;2.20;;;2.00;;
18399;SDS011;9326;49.468;11.008;2023-07-30T11:09:47;1.77;;;1.67;;
18399;SDS011;9326;49.468;11.008;2023-07-30T11:12:25;1.83;;;1.73;;
18399;SDS011;9326;49.468;11.008;2023-07-30T11:14:59;1.67;;;1.57;;
18399;SDS011;9326;49.468;11.008;2023-07-30T11:17:26;1.57;;;1.47;;
18399;SDS011;9326;49.468;11.008;2023-07-30T11:19:54;1.50;;;1.40;;
18399;SDS011;9326;49.468;11.008;2023-07-30T11:22:29;1.67;;;1.57;;
18399;SDS011;9326;49.468;11.008;2023-07-30T11:24:57;1.53;;;1.43;;
18399;SDS011;9326;49.468;11.008;2023-07-30T11:27:26;1.80;;;1.70;;
18399;SDS011;9326;49.468;11.008;2023-07-30T11:29:53;1.70;;;1.60;;
18399;SDS011;9326;49.468;11.008;2023-07-30T11:32:21;1.70;;;1.60;;
18399;SDS011;9326;49.468;11.008;2023-07-30T11:34:50;1.67;;;1.57;;
18399;SDS011;9326;49.468;11.008;2023-07-30T11:37:17;1.60;;;1.50;;
18399;SDS011;9326;49.468;11.008;2023-07-30T11:39:45;1.70;;;1.60;;
18399;SDS011;9326;49.468;11.008;2023-07-30T11:42:13;1.83;;;1.73;;
18399;SDS011;9326;49.468;11.008;2023-07-30T11:44:41;1.63;;;1.53;;
18399;SDS011;9326;49.468;11.008;2023-07-30T11:47:08;1.83;;;1.73;;
18399;SDS011;9326;49.468;11.008;2023-07-30T11:49:35;1.67;;;1.57;;
18399;SDS011;9326;49.468;11.008;2023-07-30T11:52:05;2.00;;;1.50;;
18399;SDS011;9326;49.468;11.008;2023-07-30T11:54:33;1.50;;;1.40;;
18399;SDS011;9326;49.468;11.008;2023-07-30T11:57:01;1.90;;;1.80;;
18399;SDS011;9326;49.468;11.008;2023-07-30T11:59:30;2.27;;;1.70;;
18399;SDS011;9326;49.468;11.008;2023-07-30T12:01:57;2.57;;;1.70;;
18399;SDS011;9326;49.468;11.008;2023-07-30T12:04:24;1.90;;;1.73;;
18399;SDS011;9326;49.468;11.008;2023-07-30T12:06:52;1.80;;;1.70;;
18399;SDS011;9326;49.468;11.008;2023-07-30T12:09:20;1.70;;;1.60;;
18399;SDS011;9326;49.468;11.008;2023-07-30T12:11:48;2.47;;;1.73;;
18399;SDS011;9326;49.468;11.008;2023-07-30T12:14:18;1.70;;;1.60;;
18399;SDS011;9326;49.468;11.008;2023-07-30T12:16:45;3.10;;;2.10;;
18399;SDS011;9326;49.468;11.008;2023-07-30T12:19:12;1.70;;;1.60;;
18399;SDS011;9326;49.468;11.008;2023-07-30T12:21:39;2.37;;;1.60;;
18399;SDS011;9326;49.468;11.008;2023-07-30T12:24:06;1.93;;;1.80;;
18399;SDS011;9326;49.468;11.008;2023-07-30T12:26:33;2.83;;;1.70;;
18399;SDS011;9326;49.468;11.008;2023-07-30T12:29:00;2.60;;;1.97;;
18399;SDS011;9326;49.468;11.008;2023-07-30T12:31:29;2.00;;;1.80;;
18399;SDS011;9326;49.468;11.008;2023-07-30T12:33:56;1.90;;;1.80;;
18399;SDS011;9326;49.468;11.008;2023-07-30T12:36:23;3.23;;;2.27;;
18399;SDS011;9326;49.468;11.008;2023-07-30T12:38:50;2.13;;;1.80;;
18399;SDS011;9326;49.468;11.008;2023-07-30T12:41:18;1.80;;;1.70;;
18399;SDS011;9326;49.468;11.008;2023-07-30T12:43:50;2.13;;;2.00;;
18399;SDS011;9326;49.468;11.008;2023-07-30T12:46:17;2.03;;;1.93;;
18399;SDS011;9326;49.468;11.008;2023-07-30T12:48:46;3.60;;;2.07;;
18399;SDS011;9326;49.468;11.008;2023-07-30T12:51:13;2.07;;;1.87;;
18399;SDS011;9326;49.468;11.008;2023-07-30T12:53:40;2.37;;;2.10;;
18399;SDS011;9326;49.468;11.008;2023-07-30T12:56:07;2.43;;;1.87;;
18399;SDS011;9326;49.468;11.008;2023-07-30T12:58:34;2.03;;;1.53;;
18399;SDS011;9326;49.468;11.008;2023-07-30T13:01:02;2.40;;;1.60;;
18399;SDS011;9326;49.468;11.008;2023-07-30T13:03:29;4.03;;;2.10;;
18399;SDS011;9326;49.468;11.008;2023-07-30T13:05:57;1.93;;;1.80;;
18399;SDS011;9326;49.468;11.008;2023-07-30T13:08:24;2.43;;;2.20;;
18399;SDS011;9326;49.468;11.008;2023-07-30T13:10:51;3.63;;;1.80;;
18399;SDS011;9326;49.468;11.008;2023-07-30T13:13:18;2.10;;;1.90;;
18399;SDS011;9326;49.468;11.008;2023-07-30T13:15:45;2.03;;;1.83;;
18399;SDS011;9326;49.468;11.008;2023-07-30T13:18:12;2.63;;;1.60;;
18399;SDS011;9326;49.468;11.008;2023-07-30T13:20:40;3.50;;;2.00;;
18399;SDS011;9326;49.468;11.008;2023-07-30T13:23:08;3.77;;;1.70;;
18399;SDS011;9326;49.468;11.008;2023-07-30T13:25:35;1.80;;;1.70;;
18399;SDS011;9326;49.468;11.008;2023-07-30T13:28:02;1.60;;;1.50;;
18399;SDS011;9326;49.468;11.008;2023-07-30T13:30:29;1.90;;;1.67;;
18399;SDS011;9326;49.468;11.008;2023-07-30T13:32:56;2.20;;;2.00;;
18399;SDS011;9326;49.468;11.008;2023-07-30T13:35:23;1.63;;;1.50;;
18399;SDS011;9326;49.468;11.008;2023-07-30T13:37:50;1.57;;;1.47;;
18399;SDS011;9326;49.468;11.008;2023-07-30T13:40:19;1.70;;;1.60;;
18399;SDS011;9326;49.468;11.008;2023-07-30T13:42:46;1.53;;;1.43;;
18399;SDS011;9326;49.468;11.008;2023-07-30T13:45:13;2.27;;;1.63;;
18399;SDS011;9326;49.468;11.008;2023-07-30T13:47:40;2.67;;;1.57;;
18399;SDS011;9326;49.468;11.008;2023-07-30T13:50:07;2.23;;;1.40;;
18399;SDS011;9326;49.468;11.008;2023-07-30T13:52:34;2.00;;;1.43;;
18399;SDS011;9326;49.468;11.008;2023-07-30T13:55:02;2.27;;;1.30;;
18399;SDS011;9326;49.468;11.008;2023-07-30T13:57:30;1.50;;;1.40;;
18399;SDS011;9326;49.468;11.008;2023-07-30T14:00:00;1.83;;;1.57;;
18399;SDS011;9326;49.468;11.008;2023-07-30T14:02:27;1.80;;;1.43;;
18399;SDS011;9326;49.468;11.008;2023-07-30T14:04:54;1.57;;;1.47;;
18399;SDS011;9326;49.468;11.008;2023-07-30T14:07:21;1.60;;;1.50;;
18399;SDS011;9326;49.468;11.008;2023-07-30T14:09:49;2.37;;;1.70;;
18399;SDS011;9326;49.468;11.008;2023-07-30T14:12:15;2.47;;;1.67;;
18399;SDS011;9326;49.468;11.008;2023-07-30T14:14:44;2.07;;;1.43;;
18399;SDS011;9326;49.468;11.008;2023-07-30T14:17:11;1.27;;;1.20;;
18399;SDS011;9326;49.468;11.008;2023-07-30T14:19:38;2.50;;;1.40;;
18399;SDS011;9326;49.468;11.008;2023-07-30T14:22:05;1.37;;;1.27;;
18399;SDS011;9326;49.468;11.008;2023-07-30T14:24:32;3.63;;;1.37;;
18399;SDS011;9326;49.468;11.008;2023-07-30T14:27:01;1.40;;;1.30;;
18399;SDS011;9326;49.468;11.008;2023-07-30T14:29:28;2.53;;;1.40;;
18399;SDS011;9326;49.468;11.008;2023-07-30T14:31:56;2.27;;;1.40;;
18399;SDS011;9326;49.468;11.008;2023-07-30T14:34:23;1.80;;;1.30;;
18399;SDS011;9326;49.468;11.008;2023-07-30T14:36:52;3.63;;;1.33;;
18399;SDS011;9326;49.468;11.008;2023-07-30T14:39:19;1.30;;;1.20;;
18399;SDS011;9326;49.468;11.008;2023-07-30T14:41:46;2.23;;;1.53;;
18399;SDS011;9326;49.468;11.008;2023-07-30T14:44:14;1.50;;;1.40;;
18399;SDS011;9326;49.468;11.008;2023-07-30T14:46:48;3.13;;;1.33;;
18399;SDS011;9326;49.468;11.008;2023-07-30T14:49:17;1.20;;;1.20;;
18399;SDS011;9326;49.468;11.008;2023-07-30T14:51:44;2.20;;;1.30;;
18399;SDS011;9326;49.468;11.008;2023-07-30T14:54:12;1.57;;;1.20;;
18399;SDS011;9326;49.468;11.008;2023-07-30T14:56:39;1.80;;;1.20;;
18399;SDS011;9326;49.468;11.008;2023-07-30T14:59:06;3.47;;;1.30;;
18399;SDS011;9326;49.468;11.008;2023-07-30T15:01:36;1.77;;;1.10;;
18399;SDS011;9326;49.468;11.008;2023-07-30T15:04:03;2.13;;;1.30;;
18399;SDS011;9326;49.468;11.008;2023-07-30T15:06:32;1.73;;;1.50;;
18399;SDS011;9326;49.468;11.008;2023-07-30T15:08:59;1.70;;;1.50;;
18399;SDS011;9326;49.468;11.008;2023-07-30T15:11:27;1.57;;;1.30;;
18399;SDS011;9326;49.468;11.008;2023-07-30T15:13:54;1.63;;;1.20;;
18399;SDS011;9326;49.468;11.008;2023-07-30T15:16:21;1.40;;;1.30;;
18399;SDS011;9326;49.468;11.008;2023-07-30T15:18:48;1.83;;;1.20;;
18399;SDS011;9326;49.468;11.008;2023-07-30T15:21:16;1.37;;;1.20;;
18399;SDS011;9326;49.468;11.008;2023-07-30T15:23:45;1.37;;;1.27;;
18399;SDS011;9326;49.468;11.008;2023-07-30T15:26:12;2.40;;;1.10;;
18399;SDS011;9326;49.468;11.008;2023-07-30T15:28:40;1.37;;;1.17;;
18399;SDS011;9326;49.468;11.008;2023-07-30T15:31:07;2.10;;;1.20;;
18399;SDS011;9326;49.468;11.008;2023-07-30T15:33:35;1.40;;;1.20;;
18399;SDS011;9326;49.468;11.008;2023-07-30T15:36:02;2.03;;;1.47;;
18399;SDS011;9326;49.468;11.008;2023-07-30T15:38:29;1.47;;;1.30;;
18399;SDS011;9326;49.468;11.008;2023-07-30T15:40:58;1.60;;;1.27;;
18399;SDS011;9326;49.468;11.008;2023-07-30T15:43:25;2.07;;;1.20;;
18399;SDS011;9326;49.468;11.008;2023-07-30T15:45:52;1.30;;;1.20;;
18399;SDS011;9326;49.468;11.008;2023-07-30T15:48:26;1.30;;;1.20;;
18399;SDS011;9326;49.468;11.008;2023-07-30T15:50:53;2.70;;;1.80;;
18399;SDS011;9326;49.468;11.008;2023-07-30T15:53:20;2.97;;;2.00;;
18399;SDS011;9326;49.468;11.008;2023-07-30T15:55:48;2.27;;;1.30;;
18399;SDS011;9326;49.468;11.008;2023-07-30T15:58:16;1.63;;;1.30;;
18399;SDS011;9326;49.468;11.008;2023-07-30T16:00:43;3.00;;;1.37;;
18399;SDS011;9326;49.468;11.008;2023-07-30T16:03:10;6.57;;;1.50;;
18399;SDS011;9326;49.468;11.008;2023-07-30T16:05:37;1.53;;;1.33;;
18399;SDS011;9326;49.468;11.008;2023-07-30T16:08:04;2.60;;;1.40;;
18399;SDS011;9326;49.468;11.008;2023-07-30T16:10:32;1.77;;;1.20;;
18399;SDS011;9326;49.468;11.008;2023-07-30T16:12:59;2.50;;;1.53;;
18399;SDS011;9326;49.468;11.008;2023-07-30T16:15:27;3.30;;;1.33;;
18399;SDS011;9326;49.468;11.008;2023-07-30T16:17:54;1.87;;;1.40;;
18399;SDS011;9326;49.468;11.008;2023-07-30T16:20:22;2.30;;;1.40;;
18399;SDS011;9326;49.468;11.008;2023-07-30T16:22:49;2.50;;;1.70;;
18399;SDS011;9326;49.468;11.008;2023-07-30T16:25:16;2.57;;;1.40;;
18399;SDS011;9326;49.468;11.008;2023-07-30T16:27:43;2.00;;;1.60;;
18399;SDS011;9326;49.468;11.008;2023-07-30T16:30:10;2.73;;;1.77;;
18399;SDS011;9326;49.468;11.008;2023-07-30T16:32:39;1.90;;;1.60;;
18399;SDS011;9326;49.468;11.008;2023-07-30T16:35:06;2.07;;;1.50;;
18399;SDS011;9326;49.468;11.008;2023-07-30T16:37:33;2.43;;;1.37;;
18399;SDS011;9326;49.468;11.008;2023-07-30T16:40:00;1.80;;;1.23;;
18399;SDS011;9326;49.468;11.008;2023-07-30T16:42:28;1.87;;;1.40;;
18399;SDS011;9326;49.468;11.008;2023-07-30T16:44:55;2.53;;;1.57;;
18399;SDS011;9326;49.468;11.008;2023-07-30T16:47:22;2.87;;;1.37;;
18399;SDS011;9326;49.468;11.008;2023-07-30T16:49:50;3.03;;;1.40;;
18399;SDS011;9326;49.468;11.008;2023-07-30T16:52:17;2.33;;;1.50;;
18399;SDS011;9326;49.468;11.008;2023-07-30T16:54:44;2.80;;;1.43;;
18399;SDS011;9326;49.468;11.008;2023-07-30T16:57:11;1.50;;;1.10;;
18399;SDS011;9326;49.468;11.008;2023-07-30T16:59:39;1.60;;;1.10;;
18399;SDS011;9326;49.468;11.008;2023-07-30T17:02:06;2.87;;;1.30;;
18399;SDS011;9326;49.468;11.008;2023-07-30T17:04:33;2.37;;;1.40;;
18399;SDS011;9326;49.468;11.008;2023-07-30T17:07:02;3.93;;;1.70;;
18399;SDS011;9326;49.468;11.008;2023-07-30T17:09:29;2.23;;;1.37;;
18399;SDS011;9326;49.468;11.008;2023-07-30T17:11:56;3.37;;;1.50;;
18399;SDS011;9326;49.468;11.008;2023-07-30T17:14:23;5.00;;;1.40;;
18399;SDS011;9326;49.468;11.008;2023-07-30T17:16:50;2.00;;;1.47;;
18399;SDS011;9326;49.468;11.008;2023-07-30T17:19:17;2.63;;;1.27;;
18399;SDS011;9326;49.468;11.008;2023-07-30T17:21:44;2.40;;;1.10;;
18399;SDS011;9326;49.468;11.008;2023-07-30T17:24:13;1.77;;;1.40;;
18399;SDS011;9326;49.468;11.008;2023-07-30T17:26:40;1.70;;;1.40;;
18399;SDS011;9326;49.468;11.008;2023-07-30T17:29:07;4.10;;;1.67;;
18399;SDS011;9326;49.468;11.008;2023-07-30T17:31:34;2.47;;;1.37;;
18399;SDS011;9326;49.468;11.008;2023-07-30T17:34:01;2.10;;;1.43;;
18399;SDS011;9326;49.468;11.008;2023-07-30T17:36:28;2.90;;;1.47;;
18399;SDS011;9326;49.468;11.008;2023-07-30T17:38:57;4.30;;;1.63;;
18399;SDS011;9326;49.468;11.008;2023-07-30T17:41:25;2.93;;;1.40;;
18399;SDS011;9326;49.468;11.008;2023-07-30T17:43:52;3.10;;;1.47;;
18399;SDS011;9326;49.468;11.008;2023-07-30T17:46:20;1.83;;;1.30;;
18399;SDS011;9326;49.468;11.008;2023-07-30T17:48:47;4.33;;;1.70;;
18399;SDS011;9326;49.468;11.008;2023-07-30T17:51:16;3.60;;;1.57;;
18399;SDS011;9326;49.468;11.008;2023-07-30T17:53:43;3.33;;;1.40;;
18399;SDS011;9326;49.468;11.008;2023-07-30T17:56:10;2.27;;;1.63;;
18399;SDS011;9326;49.468;11.008;2023-07-30T17:58:39;3.47;;;1.63;;
18399;SDS011;9326;49.468;11.008;2023-07-30T18:01:06;2.37;;;1.30;;
18399;SDS011;9326;49.468;11.008;2023-07-30T18:03:33;2.67;;;1.50;;
18399;SDS011;9326;49.468;11.008;2023-07-30T18:06:01;2.03;;;1.50;;
18399;SDS011;9326;49.468;11.008;2023-07-30T18:08:28;2.83;;;1.30;;
18399;SDS011;9326;49.468;11.008;2023-07-30T18:10:57;1.93;;;1.40;;
18399;SDS011;9326;49.468;11.008;2023-07-30T18:13:25;3.03;;;1.57;;
18399;SDS011;9326;49.468;11.008;2023-07-30T18:15:55;2.23;;;1.33;;
18399;SDS011;9326;49.468;11.008;2023-07-30T18:18:22;3.53;;;1.50;;
18399;SDS011;9326;49.468;11.008;2023-07-30T18:20:49;3.13;;;1.50;;
18399;SDS011;9326;49.468;11.008;2023-07-30T18:23:16;3.13;;;1.50;;
18399;SDS011;9326;49.468;11.008;2023-07-30T18:25:43;3.97;;;1.67;;
18399;SDS011;9326;49.468;11.008;2023-07-30T18:28:10;3.00;;;1.70;;
18399;SDS011;9326;49.468;11.008;2023-07-30T18:30:37;2.67;;;1.73;;
18399;SDS011;9326;49.468;11.008;2023-07-30T18:33:06;3.13;;;1.30;;
18399;SDS011;9326;49.468;11.008;2023-07-30T18:35:33;2.83;;;1.70;;
18399;SDS011;9326;49.468;11.008;2023-07-30T18:38:00;2.10;;;1.73;;
18399;SDS011;9326;49.468;11.008;2023-07-30T18:40:27;3.77;;;1.70;;
18399;SDS011;9326;49.468;11.008;2023-07-30T18:42:54;1.83;;;1.60;;
18399;SDS011;9326;49.468;11.008;2023-07-30T18:45:21;2.13;;;1.50;;
18399;SDS011;9326;49.468;11.008;2023-07-30T18:47:48;4.63;;;1.90;;
18399;SDS011;9326;49.468;11.008;2023-07-30T18:50:17;4.63;;;1.70;;
18399;SDS011;9326;49.468;11.008;2023-07-30T18:52:44;2.23;;;1.60;;
18399;SDS011;9326;49.468;11.008;2023-07-30T18:55:11;3.20;;;1.70;;
18399;SDS011;9326;49.468;11.008;2023-07-30T18:57:38;3.43;;;2.20;;
18399;SDS011;9326;49.468;11.008;2023-07-30T19:00:06;2.83;;;1.60;;
18399;SDS011;9326;49.468;11.008;2023-07-30T19:02:34;2.67;;;1.70;;
18399;SDS011;9326;49.468;11.008;2023-07-30T19:05:01;3.07;;;1.83;;
18399;SDS011;9326;49.468;11.008;2023-07-30T19:07:29;2.27;;;1.80;;
18399;SDS011;9326;49.468;11.008;2023-07-30T19:09:57;2.93;;;2.00;;
18399;SDS011;9326;49.468;11.008;2023-07-30T19:12:24;2.73;;;1.60;;
18399;SDS011;9326;49.468;11.008;2023-07-30T19:14:51;3.10;;;1.90;;
18399;SDS011;9326;49.468;11.008;2023-07-30T19:17:18;3.93;;;2.10;;
18399;SDS011;9326;49.468;11.008;2023-07-30T19:19:46;3.80;;;1.80;;
18399;SDS011;9326;49.468;11.008;2023-07-30T19:22:13;3.37;;;1.70;;
18399;SDS011;9326;49.468;11.008;2023-07-30T19:24:43;3.53;;;1.80;;
18399;SDS011;9326;49.468;11.008;2023-07-30T19:27:11;4.30;;;2.07;;
18399;SDS011;9326;49.468;11.008;2023-07-30T19:29:38;2.77;;;1.50;;
18399;SDS011;9326;49.468;11.008;2023-07-30T19:32:06;3.80;;;1.70;;
18399;SDS011;9326;49.468;11.008;2023-07-30T19:34:33;3.13;;;1.60;;
18399;SDS011;9326;49.468;11.008;2023-07-30T19:37:01;4.67;;;1.83;;
18399;SDS011;9326;49.468;11.008;2023-07-30T19:39:28;1.83;;;1.40;;
18399;SDS011;9326;49.468;11.008;2023-07-30T19:41:56;2.83;;;1.80;;
18399;SDS011;9326;49.468;11.008;2023-07-30T19:44:23;2.77;;;1.70;;
18399;SDS011;9326;49.468;11.008;2023-07-30T19:46:50;2.67;;;1.63;;
18399;SDS011;9326;49.468;11.008;2023-07-30T19:49:17;2.13;;;1.43;;
18399;SDS011;9326;49.468;11.008;2023-07-30T19:51:44;4.47;;;1.53;;
18399;SDS011;9326;49.468;11.008;2023-07-30T19:54:11;3.83;;;1.70;;